createdAt,value
2019-05-22T00:00:12.183Z,11.27
2019-05-22T00:05:15.971Z,10.10
2019-05-22T00:10:21.074Z,10.83
2019-05-22T00:15:24.899Z,10.50
2019-05-22T00:20:27.575Z,11.80
2019-05-22T00:25:33.112Z,10.93
2019-05-22T00:30:33.530Z,10.97
2019-05-22T00:35:38.884Z,10.23
2019-05-22T00:40:42.313Z,11.17
2019-05-22T00:45:45.851Z,9.77
2019-05-22T00:50:55.108Z,9.10
2019-05-22T00:56:01.918Z,9.00
2019-05-22T01:01:14.733Z,8.70
2019-05-22T01:06:18.688Z,8.43
2019-05-22T01:11:22.215Z,8.77
2019-05-22T01:16:25.040Z,9.07
2019-05-22T01:21:27.690Z,8.70
2019-05-22T01:26:30.308Z,8.53
2019-05-22T01:31:37.957Z,9.77
2019-05-22T01:36:44.708Z,8.27
2019-05-22T01:41:48.280Z,9.43
2019-05-22T01:46:51.001Z,8.27
2019-05-22T01:51:54.018Z,8.23
2019-05-22T01:57:01.204Z,9.93
2019-05-22T02:02:04.309Z,9.23
2019-05-22T02:07:07.139Z,9.60
2019-05-22T02:12:17.186Z,8.20
2019-05-22T02:17:19.956Z,8.87
2019-05-22T02:22:22.665Z,9.23
2019-05-22T02:27:25.368Z,8.90
2019-05-22T02:32:28.059Z,9.13
2019-05-22T02:37:30.776Z,9.90
2019-05-22T02:42:33.381Z,8.33
2019-05-22T02:47:36.012Z,9.53
2019-05-22T02:52:38.574Z,9.33
2019-05-22T02:57:41.214Z,9.90
2019-05-22T03:02:47.797Z,9.83
2019-05-22T03:07:50.468Z,10.37
2019-05-22T03:12:53.119Z,10.07
2019-05-22T03:17:59.349Z,10.00
2019-05-22T03:23:10.122Z,10.33
2019-05-22T03:28:12.837Z,9.40
2019-05-22T03:33:15.570Z,10.23
2019-05-22T03:38:19.133Z,9.90
2019-05-22T03:43:22.354Z,10.77
2019-05-22T03:48:25.093Z,9.67
2019-05-22T03:53:27.759Z,9.07
2019-05-22T03:58:30.430Z,9.37
2019-05-22T04:03:33.122Z,9.77
2019-05-22T04:08:35.793Z,9.60
2019-05-22T04:13:38.451Z,9.63
2019-05-22T04:18:40.981Z,11.23
2019-05-22T04:23:43.590Z,9.80
2019-05-22T04:28:46.761Z,11.33
2019-05-22T04:33:49.423Z,10.97
2019-05-22T04:38:52.024Z,12.30
2019-05-22T04:43:54.675Z,11.50
2019-05-22T04:48:57.264Z,13.40
2019-05-22T04:53:59.945Z,11.03
2019-05-22T04:59:02.856Z,11.33
2019-05-22T05:04:05.613Z,11.43
2019-05-22T05:09:09.340Z,12.13
2019-05-22T05:14:12.048Z,11.97
2019-05-22T05:19:14.713Z,11.70
2019-05-22T05:24:17.379Z,14.10
2019-05-22T05:29:24.796Z,14.20
2019-05-22T05:34:54.571Z,13.33
2019-05-22T05:40:36.383Z,16.03
2019-05-22T05:45:39.481Z,17.43
2019-05-22T05:50:52.210Z,17.90
2019-05-22T05:56:14.735Z,19.33
2019-05-22T06:01:20.097Z,21.00
2019-05-22T06:07:32.540Z,22.70
2019-05-22T06:12:35.242Z,22.43
2019-05-22T06:17:49.242Z,22.53
2019-05-22T06:23:03.485Z,26.07
2019-05-22T06:28:06.212Z,24.63
2019-05-22T06:33:27.942Z,22.87
2019-05-22T06:38:49.132Z,25.27
2019-05-22T06:44:02.652Z,24.03
2019-05-22T06:49:05.436Z,24.27
2019-05-22T06:54:08.055Z,25.27
2019-05-22T06:59:10.779Z,27.33
2019-05-22T07:04:13.484Z,29.47
2019-05-22T07:09:16.040Z,30.90
2019-05-22T07:14:18.761Z,30.97
2019-05-22T07:19:21.547Z,33.27
2019-05-22T07:24:27.024Z,32.60
2019-05-22T07:29:29.761Z,33.43
2019-05-22T07:34:32.471Z,31.37
2019-05-22T07:39:35.160Z,30.20
2019-05-22T07:44:37.895Z,31.33
2019-05-22T07:49:40.669Z,31.90
2019-05-22T07:54:43.542Z,34.07
2019-05-22T07:59:46.152Z,34.17
2019-05-22T08:04:48.860Z,34.50
2019-05-22T08:09:51.783Z,34.03
2019-05-22T08:14:54.470Z,36.03
2019-05-22T08:19:57.095Z,34.47
2019-05-22T08:24:59.674Z,35.30
2019-05-22T08:30:02.358Z,30.67
2019-05-22T08:35:06.267Z,33.00
2019-05-22T08:40:09.027Z,33.67
2019-05-22T08:45:11.772Z,32.67
2019-05-22T08:50:14.493Z,31.20
2019-05-22T08:55:17.147Z,30.80
2019-05-22T09:00:19.949Z,30.27
2019-05-22T09:05:22.681Z,28.37
2019-05-22T09:10:26.335Z,29.10
2019-05-22T09:15:28.792Z,27.73
2019-05-22T09:20:46.433Z,26.80
2019-05-22T09:25:34.311Z,28.23
2019-05-22T09:30:37.080Z,26.73
2019-05-22T09:35:39.807Z,24.40
2019-05-22T09:40:42.394Z,27.97
2019-05-22T09:45:45.052Z,26.23
2019-05-22T09:50:47.746Z,26.03
2019-05-22T09:55:50.848Z,26.07
2019-05-22T10:00:53.433Z,24.93
2019-05-22T10:05:56.195Z,26.80
2019-05-22T10:10:58.798Z,25.33
2019-05-22T10:16:01.592Z,23.73
2019-05-22T10:21:04.383Z,25.93
2019-05-22T10:26:07.003Z,23.63
2019-05-22T10:31:10.882Z,24.40
2019-05-22T10:36:12.593Z,24.07
2019-05-22T10:41:15.178Z,24.10
2019-05-22T10:46:17.759Z,22.77
2019-05-22T10:51:20.420Z,24.20
2019-05-22T10:56:23.075Z,26.30
2019-05-22T11:01:25.842Z,23.07
2019-05-22T11:06:28.494Z,22.70
2019-05-22T11:11:31.178Z,25.87
2019-05-22T11:16:33.837Z,24.43
2019-05-22T11:21:36.546Z,23.73
2019-05-22T11:26:39.194Z,24.67
2019-05-22T11:31:41.948Z,23.70
2019-05-22T11:36:44.585Z,21.23
2019-05-22T11:41:47.184Z,21.40
2019-05-22T11:46:50.060Z,21.83
2019-05-22T11:51:52.932Z,21.83
2019-05-22T11:56:55.619Z,23.57
2019-05-22T12:01:58.242Z,23.90
2019-05-22T12:07:01.223Z,24.63
2019-05-22T12:12:03.935Z,25.93
2019-05-22T12:17:07.071Z,28.37
2019-05-22T12:22:09.816Z,27.17
2019-05-22T12:27:12.429Z,24.40
2019-05-22T12:32:15.119Z,28.33
2019-05-22T12:37:17.733Z,26.90
2019-05-22T12:42:20.345Z,27.67
2019-05-22T12:47:23.459Z,27.40
2019-05-22T12:52:26.215Z,24.47
2019-05-22T12:57:28.884Z,22.63
2019-05-22T13:02:31.640Z,22.43
2019-05-22T13:07:34.268Z,21.97
2019-05-22T13:12:36.931Z,21.70
2019-05-22T13:17:39.709Z,20.80
2019-05-22T13:22:43.346Z,19.23
2019-05-22T13:27:45.922Z,18.47
2019-05-22T13:32:48.907Z,16.90
2019-05-22T13:37:51.512Z,17.93
2019-05-22T13:42:54.141Z,14.83
2019-05-22T13:47:56.839Z,15.13
2019-05-22T13:53:00.562Z,14.20
2019-05-22T13:58:03.257Z,14.63
2019-05-22T14:03:06.030Z,13.57
2019-05-22T14:08:08.780Z,13.47
2019-05-22T14:13:11.954Z,13.57
2019-05-22T14:18:14.779Z,11.60
2019-05-22T14:23:17.486Z,13.53
2019-05-22T14:28:20.509Z,10.80
2019-05-22T14:33:23.536Z,11.80
2019-05-22T14:38:26.505Z,11.47
2019-05-22T14:43:29.244Z,9.80
2019-05-22T14:48:31.974Z,9.33
2019-05-22T14:53:34.660Z,9.83
2019-05-22T14:58:37.360Z,9.50
2019-05-22T15:03:40.082Z,9.83
2019-05-22T15:08:42.785Z,9.97
2019-05-22T15:13:45.904Z,9.13
2019-05-22T15:18:48.594Z,10.60
2019-05-22T15:23:51.256Z,8.47
2019-05-22T15:28:53.966Z,10.80
2019-05-22T15:33:56.646Z,9.13
2019-05-22T15:38:59.455Z,8.90
2019-05-22T15:44:02.153Z,10.60
2019-05-22T15:49:04.900Z,9.77
2019-05-22T15:54:07.637Z,8.67
2019-05-22T15:59:10.464Z,8.70
2019-05-22T16:04:13.246Z,9.30
2019-05-22T16:09:16.196Z,10.00
2019-05-22T16:14:19.077Z,9.70
2019-05-22T16:19:23.030Z,11.53
2019-05-22T16:24:25.770Z,8.70
2019-05-22T16:29:28.504Z,10.00
2019-05-22T16:34:31.271Z,11.23
2019-05-22T16:39:34.403Z,13.83
2019-05-22T16:44:37.250Z,12.23
2019-05-22T16:49:39.996Z,11.37
2019-05-22T16:54:43.112Z,10.33
2019-05-22T16:59:45.740Z,9.87
2019-05-22T17:04:48.481Z,11.50
2019-05-22T17:09:51.414Z,11.57
2019-05-22T17:14:54.083Z,11.60
2019-05-22T17:19:56.717Z,13.47
2019-05-22T17:24:59.370Z,15.70
2019-05-22T17:30:02.378Z,14.20
2019-05-22T17:35:05.544Z,14.30
2019-05-22T17:40:08.334Z,13.20
2019-05-22T17:45:11.584Z,15.43
2019-05-22T17:50:26.113Z,14.83
2019-05-22T17:55:17.275Z,13.90
2019-05-22T18:00:25.296Z,13.07
2019-05-22T18:05:28.700Z,14.30
2019-05-22T18:10:31.996Z,14.87
2019-05-22T18:15:34.802Z,14.70
2019-05-22T18:20:43.345Z,14.63
2019-05-22T18:25:40.020Z,14.20
2019-05-22T18:30:42.799Z,15.57
2019-05-22T18:35:45.423Z,17.17
2019-05-22T18:40:48.069Z,17.60
2019-05-22T18:45:50.748Z,14.40
2019-05-22T18:50:53.531Z,13.90
2019-05-22T18:55:56.112Z,15.03
2019-05-22T19:00:58.863Z,15.03
2019-05-22T19:06:02.070Z,15.83
2019-05-22T19:11:04.685Z,13.50
2019-05-22T19:16:07.348Z,14.23
2019-05-22T19:21:10.236Z,13.07
2019-05-22T19:26:12.832Z,18.83
2019-05-22T19:31:15.633Z,14.50
2019-05-22T19:36:18.481Z,15.63
2019-05-22T19:41:21.267Z,11.93
2019-05-22T19:46:24.281Z,11.53
2019-05-22T19:51:27.456Z,12.30
2019-05-22T19:56:30.133Z,13.27
2019-05-22T20:01:33.147Z,12.60
2019-05-22T20:06:38.437Z,13.03
2019-05-22T20:11:39.249Z,15.00
2019-05-22T20:16:41.925Z,15.87
2019-05-22T20:21:44.911Z,12.53
2019-05-22T20:26:47.672Z,12.57
2019-05-22T20:31:50.385Z,12.70
2019-05-22T20:36:53.117Z,13.23
2019-05-22T20:41:55.800Z,21.77
2019-05-22T20:46:58.402Z,15.53
2019-05-22T20:52:01.145Z,22.23
2019-05-22T20:57:04.170Z,15.63
2019-05-22T21:02:06.877Z,15.23
2019-05-22T21:07:09.625Z,16.13
2019-05-22T21:12:13.170Z,13.70
2019-05-22T21:17:16.139Z,13.80
2019-05-22T21:22:21.200Z,12.80
2019-05-22T21:27:23.823Z,11.83
2019-05-22T21:32:26.585Z,13.13
2019-05-22T21:37:29.087Z,11.33
2019-05-22T21:42:31.855Z,13.00
2019-05-22T21:47:34.563Z,15.70
2019-05-22T21:52:37.234Z,18.90
2019-05-22T21:57:39.872Z,15.97
2019-05-22T22:02:42.984Z,13.63
2019-05-22T22:07:45.805Z,12.23
2019-05-22T22:12:54.772Z,13.20
2019-05-22T22:17:57.370Z,17.50
2019-05-22T22:23:01.210Z,12.80
2019-05-22T22:28:04.034Z,14.07
2019-05-22T22:33:07.640Z,12.37
2019-05-22T22:38:10.320Z,11.20
2019-05-22T22:43:13.002Z,11.70
2019-05-22T22:48:15.823Z,11.20
2019-05-22T22:53:18.537Z,12.63
2019-05-22T22:58:21.301Z,10.87
2019-05-22T23:03:24.541Z,13.10
2019-05-22T23:08:27.434Z,12.80
2019-05-22T23:13:30.115Z,12.77
2019-05-22T23:18:50.447Z,12.40
2019-05-22T23:23:51.914Z,13.00
2019-05-22T23:28:54.578Z,11.30
2019-05-22T23:33:57.291Z,12.07
2019-05-22T23:38:59.937Z,11.83
2019-05-22T23:44:02.822Z,11.90
2019-05-22T23:49:05.474Z,11.20
2019-05-22T23:54:08.090Z,12.67
2019-05-22T23:59:11.616Z,11.40
